sensor_id;sensor_type;location;lat;lon;timestamp;P1;durP1;ratioP1;P2;durP2;ratioP2
14770;SDS011;7477;45.222;5.688;2022-07-09T00:01:04;1.50;;;1.40;;
14770;SDS011;7477;45.222;5.688;2022-07-09T00:04:24;2.38;;;1.38;;
14770;SDS011;7477;45.222;5.688;2022-07-09T00:07:43;1.48;;;1.20;;
14770;SDS011;7477;45.222;5.688;2022-07-09T00:11:03;1.70;;;1.45;;
14770;SDS011;7477;45.222;5.688;2022-07-09T00:14:22;1.95;;;1.35;;
14770;SDS011;7477;45.222;5.688;2022-07-09T00:17:42;3.30;;;1.55;;
14770;SDS011;7477;45.222;5.688;2022-07-09T00:21:01;2.40;;;1.55;;
14770;SDS011;7477;45.222;5.688;2022-07-09T00:24:21;2.47;;;1.58;;
14770;SDS011;7477;45.222;5.688;2022-07-09T00:27:40;2.35;;;1.40;;
14770;SDS011;7477;45.222;5.688;2022-07-09T00:30:59;2.00;;;1.60;;
14770;SDS011;7477;45.222;5.688;2022-07-09T00:34:18;2.17;;;1.83;;
14770;SDS011;7477;45.222;5.688;2022-07-09T00:37:38;2.20;;;1.48;;
14770;SDS011;7477;45.222;5.688;2022-07-09T00:40:57;1.98;;;1.40;;
14770;SDS011;7477;45.222;5.688;2022-07-09T00:44:16;1.95;;;1.40;;
14770;SDS011;7477;45.222;5.688;2022-07-09T00:47:36;1.88;;;1.50;;
14770;SDS011;7477;45.222;5.688;2022-07-09T00:50:55;3.95;;;1.92;;
14770;SDS011;7477;45.222;5.688;2022-07-09T00:54:14;7.25;;;2.03;;
14770;SDS011;7477;45.222;5.688;2022-07-09T00:57:33;2.25;;;1.58;;
14770;SDS011;7477;45.222;5.688;2022-07-09T01:00:54;2.50;;;1.60;;
14770;SDS011;7477;45.222;5.688;2022-07-09T01:04:14;1.70;;;1.60;;
14770;SDS011;7477;45.222;5.688;2022-07-09T01:07:34;2.78;;;1.52;;
14770;SDS011;7477;45.222;5.688;2022-07-09T01:10:53;3.22;;;1.60;;
14770;SDS011;7477;45.222;5.688;2022-07-09T01:14:13;3.42;;;1.65;;
14770;SDS011;7477;45.222;5.688;2022-07-09T01:17:39;2.53;;;1.50;;
14770;SDS011;7477;45.222;5.688;2022-07-09T01:20:59;1.92;;;1.60;;
14770;SDS011;7477;45.222;5.688;2022-07-09T01:24:18;2.75;;;1.63;;
14770;SDS011;7477;45.222;5.688;2022-07-09T01:27:38;1.92;;;1.50;;
14770;SDS011;7477;45.222;5.688;2022-07-09T01:30:57;2.75;;;1.60;;
14770;SDS011;7477;45.222;5.688;2022-07-09T01:34:17;1.73;;;1.55;;
14770;SDS011;7477;45.222;5.688;2022-07-09T01:37:36;1.42;;;1.30;;
14770;SDS011;7477;45.222;5.688;2022-07-09T01:40:55;2.47;;;1.70;;
14770;SDS011;7477;45.222;5.688;2022-07-09T01:44:15;1.70;;;1.30;;
14770;SDS011;7477;45.222;5.688;2022-07-09T01:47:34;2.88;;;1.50;;
14770;SDS011;7477;45.222;5.688;2022-07-09T01:50:54;1.90;;;1.40;;
14770;SDS011;7477;45.222;5.688;2022-07-09T01:54:13;1.55;;;1.30;;
14770;SDS011;7477;45.222;5.688;2022-07-09T01:57:32;4.70;;;1.55;;
14770;SDS011;7477;45.222;5.688;2022-07-09T02:00:52;4.15;;;1.50;;
14770;SDS011;7477;45.222;5.688;2022-07-09T02:04:11;5.13;;;1.80;;
14770;SDS011;7477;45.222;5.688;2022-07-09T02:07:30;1.42;;;1.33;;
14770;SDS011;7477;45.222;5.688;2022-07-09T02:10:49;4.05;;;1.90;;
14770;SDS011;7477;45.222;5.688;2022-07-09T02:14:09;2.80;;;1.70;;
14770;SDS011;7477;45.222;5.688;2022-07-09T02:17:28;1.92;;;1.60;;
14770;SDS011;7477;45.222;5.688;2022-07-09T02:20:47;1.73;;;1.63;;
14770;SDS011;7477;45.222;5.688;2022-07-09T02:24:06;1.83;;;1.67;;
14770;SDS011;7477;45.222;5.688;2022-07-09T02:27:26;3.58;;;1.63;;
14770;SDS011;7477;45.222;5.688;2022-07-09T02:30:45;1.75;;;1.60;;
14770;SDS011;7477;45.222;5.688;2022-07-09T02:34:04;2.00;;;1.80;;
14770;SDS011;7477;45.222;5.688;2022-07-09T02:37:23;1.70;;;1.60;;
14770;SDS011;7477;45.222;5.688;2022-07-09T02:40:42;2.63;;;1.60;;
14770;SDS011;7477;45.222;5.688;2022-07-09T02:44:02;2.05;;;1.70;;
14770;SDS011;7477;45.222;5.688;2022-07-09T02:47:22;2.15;;;1.50;;
14770;SDS011;7477;45.222;5.688;2022-07-09T02:50:41;3.47;;;2.00;;
14770;SDS011;7477;45.222;5.688;2022-07-09T02:54:00;2.33;;;1.67;;
14770;SDS011;7477;45.222;5.688;2022-07-09T02:57:19;1.80;;;1.70;;
14770;SDS011;7477;45.222;5.688;2022-07-09T03:00:39;2.38;;;1.80;;
14770;SDS011;7477;45.222;5.688;2022-07-09T03:03:59;5.63;;;1.88;;
14770;SDS011;7477;45.222;5.688;2022-07-09T03:07:18;2.22;;;1.70;;
14770;SDS011;7477;45.222;5.688;2022-07-09T03:10:37;2.35;;;1.92;;
14770;SDS011;7477;45.222;5.688;2022-07-09T03:13:56;2.28;;;1.80;;
14770;SDS011;7477;45.222;5.688;2022-07-09T03:17:15;1.85;;;1.60;;
14770;SDS011;7477;45.222;5.688;2022-07-09T03:20:35;1.73;;;1.50;;
14770;SDS011;7477;45.222;5.688;2022-07-09T03:23:54;2.95;;;1.70;;
14770;SDS011;7477;45.222;5.688;2022-07-09T03:27:13;4.15;;;1.80;;
14770;SDS011;7477;45.222;5.688;2022-07-09T03:30:33;3.35;;;1.67;;
14770;SDS011;7477;45.222;5.688;2022-07-09T03:33:52;3.10;;;1.90;;
14770;SDS011;7477;45.222;5.688;2022-07-09T03:37:12;4.63;;;2.38;;
14770;SDS011;7477;45.222;5.688;2022-07-09T03:40:31;3.40;;;1.83;;
14770;SDS011;7477;45.222;5.688;2022-07-09T03:43:51;3.50;;;1.75;;
14770;SDS011;7477;45.222;5.688;2022-07-09T03:47:10;2.03;;;1.70;;
14770;SDS011;7477;45.222;5.688;2022-07-09T03:50:29;3.00;;;1.85;;
14770;SDS011;7477;45.222;5.688;2022-07-09T03:53:49;3.50;;;2.08;;
14770;SDS011;7477;45.222;5.688;2022-07-09T03:57:10;2.30;;;1.92;;
14770;SDS011;7477;45.222;5.688;2022-07-09T04:00:30;3.22;;;1.80;;
14770;SDS011;7477;45.222;5.688;2022-07-09T04:03:49;2.35;;;1.77;;
14770;SDS011;7477;45.222;5.688;2022-07-09T04:07:09;2.50;;;1.92;;
14770;SDS011;7477;45.222;5.688;2022-07-09T04:10:28;2.03;;;1.60;;
14770;SDS011;7477;45.222;5.688;2022-07-09T04:13:48;1.92;;;1.75;;
14770;SDS011;7477;45.222;5.688;2022-07-09T04:17:07;3.33;;;2.00;;
14770;SDS011;7477;45.222;5.688;2022-07-09T04:20:26;3.08;;;1.95;;
14770;SDS011;7477;45.222;5.688;2022-07-09T04:23:46;2.83;;;1.60;;
14770;SDS011;7477;45.222;5.688;2022-07-09T04:27:06;2.45;;;1.55;;
14770;SDS011;7477;45.222;5.688;2022-07-09T04:30:26;4.20;;;1.75;;
14770;SDS011;7477;45.222;5.688;2022-07-09T04:33:46;2.05;;;1.77;;
14770;SDS011;7477;45.222;5.688;2022-07-09T04:37:05;2.58;;;1.73;;
14770;SDS011;7477;45.222;5.688;2022-07-09T04:40:25;1.80;;;1.65;;
14770;SDS011;7477;45.222;5.688;2022-07-09T04:43:44;1.88;;;1.77;;
14770;SDS011;7477;45.222;5.688;2022-07-09T04:47:03;2.03;;;1.63;;
14770;SDS011;7477;45.222;5.688;2022-07-09T04:50:23;1.85;;;1.58;;
14770;SDS011;7477;45.222;5.688;2022-07-09T04:53:43;1.95;;;1.70;;
14770;SDS011;7477;45.222;5.688;2022-07-09T04:57:02;2.08;;;1.90;;
14770;SDS011;7477;45.222;5.688;2022-07-09T05:00:22;2.72;;;1.92;;
14770;SDS011;7477;45.222;5.688;2022-07-09T05:03:41;2.55;;;1.63;;
14770;SDS011;7477;45.222;5.688;2022-07-09T05:07:00;6.70;;;1.90;;
14770;SDS011;7477;45.222;5.688;2022-07-09T05:10:20;2.83;;;1.95;;
14770;SDS011;7477;45.222;5.688;2022-07-09T05:13:39;2.72;;;1.88;;
14770;SDS011;7477;45.222;5.688;2022-07-09T05:17:01;1.77;;;1.60;;
14770;SDS011;7477;45.222;5.688;2022-07-09T05:20:21;3.38;;;1.80;;
14770;SDS011;7477;45.222;5.688;2022-07-09T05:23:40;2.15;;;1.75;;
14770;SDS011;7477;45.222;5.688;2022-07-09T05:26:59;3.38;;;1.80;;
14770;SDS011;7477;45.222;5.688;2022-07-09T05:30:17;2.95;;;1.73;;
14770;SDS011;7477;45.222;5.688;2022-07-09T05:33:36;3.00;;;1.63;;
14770;SDS011;7477;45.222;5.688;2022-07-09T05:36:56;3.47;;;2.38;;
14770;SDS011;7477;45.222;5.688;2022-07-09T05:40:16;2.58;;;1.90;;
14770;SDS011;7477;45.222;5.688;2022-07-09T05:43:35;3.13;;;1.73;;
14770;SDS011;7477;45.222;5.688;2022-07-09T05:46:55;3.15;;;1.95;;
14770;SDS011;7477;45.222;5.688;2022-07-09T05:50:14;2.28;;;1.75;;
14770;SDS011;7477;45.222;5.688;2022-07-09T05:53:33;2.10;;;1.88;;
14770;SDS011;7477;45.222;5.688;2022-07-09T05:56:52;1.85;;;1.75;;
14770;SDS011;7477;45.222;5.688;2022-07-09T06:00:11;2.45;;;1.70;;
14770;SDS011;7477;45.222;5.688;2022-07-09T06:03:31;3.25;;;2.05;;
14770;SDS011;7477;45.222;5.688;2022-07-09T06:06:50;3.22;;;1.92;;
14770;SDS011;7477;45.222;5.688;2022-07-09T06:10:09;2.67;;;1.70;;
14770;SDS011;7477;45.222;5.688;2022-07-09T06:13:29;2.03;;;1.70;;
14770;SDS011;7477;45.222;5.688;2022-07-09T06:16:48;4.40;;;1.90;;
14770;SDS011;7477;45.222;5.688;2022-07-09T06:20:07;2.17;;;1.95;;
14770;SDS011;7477;45.222;5.688;2022-07-09T06:23:27;2.35;;;1.95;;
14770;SDS011;7477;45.222;5.688;2022-07-09T06:26:46;3.45;;;2.28;;
14770;SDS011;7477;45.222;5.688;2022-07-09T06:30:06;4.03;;;2.20;;
14770;SDS011;7477;45.222;5.688;2022-07-09T06:33:27;4.32;;;1.90;;
14770;SDS011;7477;45.222;5.688;2022-07-09T06:36:46;7.57;;;2.35;;
14770;SDS011;7477;45.222;5.688;2022-07-09T06:40:07;2.20;;;1.92;;
14770;SDS011;7477;45.222;5.688;2022-07-09T06:43:27;2.80;;;2.20;;
14770;SDS011;7477;45.222;5.688;2022-07-09T06:46:46;2.97;;;2.38;;
14770;SDS011;7477;45.222;5.688;2022-07-09T06:50:05;2.65;;;2.08;;
14770;SDS011;7477;45.222;5.688;2022-07-09T06:53:25;2.97;;;1.90;;
14770;SDS011;7477;45.222;5.688;2022-07-09T06:56:44;3.95;;;2.45;;
14770;SDS011;7477;45.222;5.688;2022-07-09T07:00:04;3.67;;;2.17;;
14770;SDS011;7477;45.222;5.688;2022-07-09T07:03:24;3.22;;;1.90;;
14770;SDS011;7477;45.222;5.688;2022-07-09T07:06:44;2.88;;;1.95;;
14770;SDS011;7477;45.222;5.688;2022-07-09T07:10:05;2.85;;;2.15;;
14770;SDS011;7477;45.222;5.688;2022-07-09T07:13:24;4.10;;;2.15;;
14770;SDS011;7477;45.222;5.688;2022-07-09T07:16:44;4.28;;;2.00;;
14770;SDS011;7477;45.222;5.688;2022-07-09T07:20:04;2.20;;;1.98;;
14770;SDS011;7477;45.222;5.688;2022-07-09T07:23:23;4.57;;;2.40;;
14770;SDS011;7477;45.222;5.688;2022-07-09T07:26:42;4.40;;;1.83;;
14770;SDS011;7477;45.222;5.688;2022-07-09T07:30:01;1.92;;;1.70;;
14770;SDS011;7477;45.222;5.688;2022-07-09T07:33:21;2.72;;;2.33;;
14770;SDS011;7477;45.222;5.688;2022-07-09T07:36:41;3.78;;;2.33;;
14770;SDS011;7477;45.222;5.688;2022-07-09T07:40:00;6.13;;;2.25;;
14770;SDS011;7477;45.222;5.688;2022-07-09T07:43:20;5.93;;;2.08;;
14770;SDS011;7477;45.222;5.688;2022-07-09T07:46:39;7.93;;;2.65;;
14770;SDS011;7477;45.222;5.688;2022-07-09T07:49:58;4.80;;;2.38;;
14770;SDS011;7477;45.222;5.688;2022-07-09T07:53:18;3.65;;;2.10;;
14770;SDS011;7477;45.222;5.688;2022-07-09T07:56:38;2.33;;;1.88;;
14770;SDS011;7477;45.222;5.688;2022-07-09T07:59:58;3.63;;;1.90;;
14770;SDS011;7477;45.222;5.688;2022-07-09T08:03:17;4.18;;;2.33;;
14770;SDS011;7477;45.222;5.688;2022-07-09T08:06:36;3.55;;;2.00;;
14770;SDS011;7477;45.222;5.688;2022-07-09T08:09:56;4.25;;;2.30;;
14770;SDS011;7477;45.222;5.688;2022-07-09T08:13:15;2.30;;;1.83;;
14770;SDS011;7477;45.222;5.688;2022-07-09T08:16:35;2.22;;;2.00;;
14770;SDS011;7477;45.222;5.688;2022-07-09T08:19:54;3.10;;;2.20;;
14770;SDS011;7477;45.222;5.688;2022-07-09T08:23:13;4.30;;;1.75;;
14770;SDS011;7477;45.222;5.688;2022-07-09T08:26:32;5.50;;;1.92;;
14770;SDS011;7477;45.222;5.688;2022-07-09T08:29:52;1.95;;;1.75;;
14770;SDS011;7477;45.222;5.688;2022-07-09T08:33:11;5.00;;;1.90;;
14770;SDS011;7477;45.222;5.688;2022-07-09T08:36:30;2.20;;;1.98;;
14770;SDS011;7477;45.222;5.688;2022-07-09T08:39:49;3.75;;;1.98;;
14770;SDS011;7477;45.222;5.688;2022-07-09T08:43:10;3.55;;;2.28;;
14770;SDS011;7477;45.222;5.688;2022-07-09T08:46:31;2.45;;;1.90;;
14770;SDS011;7477;45.222;5.688;2022-07-09T08:49:54;1.95;;;1.85;;
14770;SDS011;7477;45.222;5.688;2022-07-09T08:53:16;2.00;;;1.83;;
14770;SDS011;7477;45.222;5.688;2022-07-09T08:56:36;2.58;;;1.67;;
14770;SDS011;7477;45.222;5.688;2022-07-09T08:59:56;2.00;;;1.80;;
14770;SDS011;7477;45.222;5.688;2022-07-09T09:03:18;3.03;;;1.70;;
14770;SDS011;7477;45.222;5.688;2022-07-09T09:06:39;2.08;;;1.77;;
14770;SDS011;7477;45.222;5.688;2022-07-09T09:09:58;2.60;;;1.90;;
14770;SDS011;7477;45.222;5.688;2022-07-09T09:13:17;3.80;;;2.17;;
14770;SDS011;7477;45.222;5.688;2022-07-09T09:16:41;2.15;;;1.40;;
14770;SDS011;7477;45.222;5.688;2022-07-09T09:20:10;2.58;;;1.90;;
14770;SDS011;7477;45.222;5.688;2022-07-09T09:23:47;2.28;;;1.98;;
14770;SDS011;7477;45.222;5.688;2022-07-09T09:27:11;1.90;;;1.80;;
14770;SDS011;7477;45.222;5.688;2022-07-09T09:30:40;2.00;;;1.80;;
14770;SDS011;7477;45.222;5.688;2022-07-09T09:37:30;2.45;;;2.08;;
14770;SDS011;7477;45.222;5.688;2022-07-09T09:40:49;5.28;;;1.88;;
14770;SDS011;7477;45.222;5.688;2022-07-09T09:44:09;1.65;;;1.50;;
14770;SDS011;7477;45.222;5.688;2022-07-09T09:47:33;4.40;;;2.60;;
14770;SDS011;7477;45.222;5.688;2022-07-09T09:50:53;2.25;;;1.58;;
14770;SDS011;7477;45.222;5.688;2022-07-09T09:54:16;2.28;;;2.00;;
14770;SDS011;7477;45.222;5.688;2022-07-09T09:57:37;2.33;;;1.90;;
14770;SDS011;7477;45.222;5.688;2022-07-09T10:00:57;3.03;;;1.95;;
14770;SDS011;7477;45.222;5.688;2022-07-09T10:04:17;1.52;;;1.42;;
14770;SDS011;7477;45.222;5.688;2022-07-09T10:07:37;2.20;;;1.75;;
14770;SDS011;7477;45.222;5.688;2022-07-09T10:10:58;4.53;;;1.90;;
14770;SDS011;7477;45.222;5.688;2022-07-09T10:14:28;1.95;;;1.80;;
14770;SDS011;7477;45.222;5.688;2022-07-09T10:17:49;2.38;;;1.90;;
14770;SDS011;7477;45.222;5.688;2022-07-09T10:21:08;1.90;;;1.80;;
14770;SDS011;7477;45.222;5.688;2022-07-09T10:24:31;2.22;;;2.03;;
14770;SDS011;7477;45.222;5.688;2022-07-09T10:27:52;3.42;;;2.15;;
14770;SDS011;7477;45.222;5.688;2022-07-09T10:31:11;2.20;;;2.00;;
14770;SDS011;7477;45.222;5.688;2022-07-09T10:38:20;2.83;;;2.03;;
14770;SDS011;7477;45.222;5.688;2022-07-09T10:41:41;2.40;;;2.20;;
14770;SDS011;7477;45.222;5.688;2022-07-09T10:45:00;1.90;;;1.80;;
14770;SDS011;7477;45.222;5.688;2022-07-09T10:48:19;2.00;;;1.90;;
14770;SDS011;7477;45.222;5.688;2022-07-09T10:51:38;3.13;;;2.00;;
14770;SDS011;7477;45.222;5.688;2022-07-09T10:55:00;2.10;;;2.00;;
14770;SDS011;7477;45.222;5.688;2022-07-09T10:58:20;2.50;;;2.00;;
14770;SDS011;7477;45.222;5.688;2022-07-09T11:01:40;3.70;;;2.42;;
14770;SDS011;7477;45.222;5.688;2022-07-09T11:04:59;2.85;;;2.30;;
14770;SDS011;7477;45.222;5.688;2022-07-09T11:08:18;2.55;;;2.25;;
14770;SDS011;7477;45.222;5.688;2022-07-09T11:11:39;4.15;;;2.83;;
14770;SDS011;7477;45.222;5.688;2022-07-09T11:15:01;4.22;;;2.30;;
14770;SDS011;7477;45.222;5.688;2022-07-09T11:18:20;2.50;;;2.30;;
14770;SDS011;7477;45.222;5.688;2022-07-09T11:21:45;2.88;;;2.22;;
14770;SDS011;7477;45.222;5.688;2022-07-09T11:25:05;4.38;;;2.70;;
14770;SDS011;7477;45.222;5.688;2022-07-09T11:28:26;2.47;;;2.20;;
14770;SDS011;7477;45.222;5.688;2022-07-09T11:31:50;4.63;;;2.42;;
14770;SDS011;7477;45.222;5.688;2022-07-09T11:35:10;2.38;;;2.15;;
14770;SDS011;7477;45.222;5.688;2022-07-09T11:38:30;3.92;;;2.95;;
14770;SDS011;7477;45.222;5.688;2022-07-09T11:41:49;3.30;;;2.20;;
14770;SDS011;7477;45.222;5.688;2022-07-09T11:45:09;2.67;;;2.47;;
14770;SDS011;7477;45.222;5.688;2022-07-09T11:48:28;6.65;;;2.75;;
14770;SDS011;7477;45.222;5.688;2022-07-09T11:51:47;5.20;;;2.45;;
14770;SDS011;7477;45.222;5.688;2022-07-09T11:55:07;3.47;;;2.85;;
14770;SDS011;7477;45.222;5.688;2022-07-09T11:58:27;8.90;;;2.85;;
14770;SDS011;7477;45.222;5.688;2022-07-09T12:01:47;10.82;;;3.92;;
14770;SDS011;7477;45.222;5.688;2022-07-09T12:05:07;12.57;;;3.30;;
14770;SDS011;7477;45.222;5.688;2022-07-09T12:08:28;15.60;;;2.78;;
14770;SDS011;7477;45.222;5.688;2022-07-09T12:11:48;7.72;;;2.75;;
14770;SDS011;7477;45.222;5.688;2022-07-09T12:15:08;3.47;;;2.10;;
14770;SDS011;7477;45.222;5.688;2022-07-09T12:18:27;3.67;;;2.20;;
14770;SDS011;7477;45.222;5.688;2022-07-09T12:21:47;2.70;;;2.22;;
14770;SDS011;7477;45.222;5.688;2022-07-09T12:25:06;5.60;;;2.30;;
14770;SDS011;7477;45.222;5.688;2022-07-09T12:28:26;3.67;;;2.25;;
14770;SDS011;7477;45.222;5.688;2022-07-09T12:31:46;2.20;;;2.00;;
14770;SDS011;7477;45.222;5.688;2022-07-09T12:35:05;3.75;;;2.15;;
14770;SDS011;7477;45.222;5.688;2022-07-09T12:38:25;4.70;;;2.50;;
14770;SDS011;7477;45.222;5.688;2022-07-09T12:41:44;10.63;;;2.53;;
14770;SDS011;7477;45.222;5.688;2022-07-09T12:45:04;5.82;;;2.70;;
14770;SDS011;7477;45.222;5.688;2022-07-09T12:48:24;5.68;;;2.88;;
14770;SDS011;7477;45.222;5.688;2022-07-09T12:51:43;2.50;;;1.88;;
14770;SDS011;7477;45.222;5.688;2022-07-09T12:55:03;5.82;;;2.15;;
14770;SDS011;7477;45.222;5.688;2022-07-09T12:58:23;11.13;;;2.92;;
14770;SDS011;7477;45.222;5.688;2022-07-09T13:01:42;8.90;;;2.42;;
14770;SDS011;7477;45.222;5.688;2022-07-09T13:05:02;4.43;;;2.13;;
14770;SDS011;7477;45.222;5.688;2022-07-09T13:08:22;2.55;;;2.00;;
14770;SDS011;7477;45.222;5.688;2022-07-09T13:11:42;5.07;;;1.95;;
14770;SDS011;7477;45.222;5.688;2022-07-09T13:15:01;2.13;;;1.70;;
14770;SDS011;7477;45.222;5.688;2022-07-09T13:18:21;2.25;;;2.00;;
14770;SDS011;7477;45.222;5.688;2022-07-09T13:21:40;3.35;;;2.00;;
14770;SDS011;7477;45.222;5.688;2022-07-09T13:24:59;2.63;;;1.92;;
14770;SDS011;7477;45.222;5.688;2022-07-09T13:28:18;1.75;;;1.65;;
14770;SDS011;7477;45.222;5.688;2022-07-09T13:31:37;3.88;;;2.00;;
14770;SDS011;7477;45.222;5.688;2022-07-09T13:34:57;3.35;;;1.88;;
14770;SDS011;7477;45.222;5.688;2022-07-09T13:38:16;4.40;;;1.95;;
14770;SDS011;7477;45.222;5.688;2022-07-09T13:41:35;4.05;;;1.90;;
14770;SDS011;7477;45.222;5.688;2022-07-09T13:44:55;4.97;;;1.73;;
14770;SDS011;7477;45.222;5.688;2022-07-09T13:48:14;3.03;;;1.95;;
14770;SDS011;7477;45.222;5.688;2022-07-09T13:51:33;2.85;;;1.65;;
14770;SDS011;7477;45.222;5.688;2022-07-09T13:54:53;2.55;;;2.10;;
14770;SDS011;7477;45.222;5.688;2022-07-09T13:58:12;2.03;;;1.83;;
14770;SDS011;7477;45.222;5.688;2022-07-09T14:01:31;1.85;;;1.67;;
14770;SDS011;7477;45.222;5.688;2022-07-09T14:04:50;6.45;;;2.15;;
14770;SDS011;7477;45.222;5.688;2022-07-09T14:08:11;4.05;;;2.10;;
14770;SDS011;7477;45.222;5.688;2022-07-09T14:11:31;4.68;;;2.08;;
14770;SDS011;7477;45.222;5.688;2022-07-09T14:14:50;5.72;;;2.25;;
14770;SDS011;7477;45.222;5.688;2022-07-09T14:18:10;1.95;;;1.75;;
14770;SDS011;7477;45.222;5.688;2022-07-09T14:21:29;3.35;;;2.22;;
14770;SDS011;7477;45.222;5.688;2022-07-09T14:24:49;2.90;;;2.00;;
14770;SDS011;7477;45.222;5.688;2022-07-09T14:28:09;2.72;;;2.13;;
14770;SDS011;7477;45.222;5.688;2022-07-09T14:31:28;2.95;;;1.95;;
14770;SDS011;7477;45.222;5.688;2022-07-09T14:34:47;3.67;;;2.00;;
14770;SDS011;7477;45.222;5.688;2022-07-09T14:38:06;5.07;;;1.98;;
14770;SDS011;7477;45.222;5.688;2022-07-09T14:41:26;8.15;;;2.10;;
14770;SDS011;7477;45.222;5.688;2022-07-09T14:44:45;2.70;;;2.08;;
14770;SDS011;7477;45.222;5.688;2022-07-09T14:48:04;2.65;;;2.13;;
14770;SDS011;7477;45.222;5.688;2022-07-09T14:51:26;4.25;;;2.25;;
14770;SDS011;7477;45.222;5.688;2022-07-09T14:54:45;2.10;;;1.90;;
14770;SDS011;7477;45.222;5.688;2022-07-09T14:58:05;4.03;;;2.20;;
14770;SDS011;7477;45.222;5.688;2022-07-09T15:01:24;2.28;;;2.03;;
14770;SDS011;7477;45.222;5.688;2022-07-09T15:04:43;3.38;;;2.05;;
14770;SDS011;7477;45.222;5.688;2022-07-09T15:08:02;2.83;;;2.13;;
14770;SDS011;7477;45.222;5.688;2022-07-09T15:11:22;1.90;;;1.80;;
14770;SDS011;7477;45.222;5.688;2022-07-09T15:14:41;4.20;;;2.42;;
14770;SDS011;7477;45.222;5.688;2022-07-09T15:18:02;3.03;;;2.20;;
14770;SDS011;7477;45.222;5.688;2022-07-09T15:21:22;3.47;;;1.90;;
14770;SDS011;7477;45.222;5.688;2022-07-09T15:24:42;3.33;;;2.20;;
14770;SDS011;7477;45.222;5.688;2022-07-09T15:28:01;3.20;;;2.00;;
14770;SDS011;7477;45.222;5.688;2022-07-09T15:31:21;3.05;;;2.15;;
14770;SDS011;7477;45.222;5.688;2022-07-09T15:34:43;5.38;;;2.10;;
14770;SDS011;7477;45.222;5.688;2022-07-09T15:38:04;8.32;;;2.60;;
14770;SDS011;7477;45.222;5.688;2022-07-09T15:41:23;2.25;;;1.95;;
14770;SDS011;7477;45.222;5.688;2022-07-09T15:44:43;3.15;;;2.42;;
14770;SDS011;7477;45.222;5.688;2022-07-09T15:48:03;2.92;;;2.17;;
14770;SDS011;7477;45.222;5.688;2022-07-09T15:51:24;3.85;;;2.05;;
14770;SDS011;7477;45.222;5.688;2022-07-09T15:54:44;3.78;;;2.63;;
14770;SDS011;7477;45.222;5.688;2022-07-09T15:58:03;5.82;;;2.22;;
14770;SDS011;7477;45.222;5.688;2022-07-09T16:01:22;2.80;;;2.15;;
14770;SDS011;7477;45.222;5.688;2022-07-09T16:04:44;4.60;;;2.33;;
14770;SDS011;7477;45.222;5.688;2022-07-09T16:08:03;3.00;;;2.10;;
14770;SDS011;7477;45.222;5.688;2022-07-09T16:11:23;3.67;;;2.10;;
14770;SDS011;7477;45.222;5.688;2022-07-09T16:15:02;2.85;;;2.08;;
14770;SDS011;7477;45.222;5.688;2022-07-09T16:18:21;3.75;;;2.10;;
14770;SDS011;7477;45.222;5.688;2022-07-09T16:21:41;2.35;;;2.10;;
14770;SDS011;7477;45.222;5.688;2022-07-09T16:25:00;3.03;;;1.85;;
14770;SDS011;7477;45.222;5.688;2022-07-09T16:28:20;2.30;;;2.10;;
14770;SDS011;7477;45.222;5.688;2022-07-09T16:31:40;2.63;;;1.70;;
14770;SDS011;7477;45.222;5.688;2022-07-09T16:34:59;3.17;;;2.15;;
14770;SDS011;7477;45.222;5.688;2022-07-09T16:38:19;3.22;;;2.17;;
14770;SDS011;7477;45.222;5.688;2022-07-09T16:41:38;4.00;;;1.85;;
14770;SDS011;7477;45.222;5.688;2022-07-09T16:44:57;4.65;;;2.03;;
14770;SDS011;7477;45.222;5.688;2022-07-09T16:48:17;3.78;;;2.25;;
14770;SDS011;7477;45.222;5.688;2022-07-09T16:51:37;2.13;;;1.95;;
14770;SDS011;7477;45.222;5.688;2022-07-09T16:54:56;3.08;;;2.53;;
14770;SDS011;7477;45.222;5.688;2022-07-09T16:58:16;3.42;;;2.20;;
14770;SDS011;7477;45.222;5.688;2022-07-09T17:01:35;2.63;;;2.03;;
14770;SDS011;7477;45.222;5.688;2022-07-09T17:04:54;2.88;;;2.13;;
14770;SDS011;7477;45.222;5.688;2022-07-09T17:08:13;5.70;;;2.40;;
14770;SDS011;7477;45.222;5.688;2022-07-09T17:11:33;2.17;;;2.03;;
14770;SDS011;7477;45.222;5.688;2022-07-09T17:14:52;2.60;;;1.85;;
14770;SDS011;7477;45.222;5.688;2022-07-09T17:18:12;4.20;;;2.50;;
14770;SDS011;7477;45.222;5.688;2022-07-09T17:21:31;3.25;;;2.40;;
14770;SDS011;7477;45.222;5.688;2022-07-09T17:24:50;3.88;;;2.40;;
14770;SDS011;7477;45.222;5.688;2022-07-09T17:28:09;6.00;;;2.80;;
14770;SDS011;7477;45.222;5.688;2022-07-09T17:31:29;4.78;;;2.72;;
14770;SDS011;7477;45.222;5.688;2022-07-09T17:34:52;3.55;;;2.70;;
14770;SDS011;7477;45.222;5.688;2022-07-09T17:38:11;6.72;;;2.63;;
14770;SDS011;7477;45.222;5.688;2022-07-09T17:41:30;7.40;;;2.60;;
14770;SDS011;7477;45.222;5.688;2022-07-09T17:44:50;3.60;;;2.67;;
14770;SDS011;7477;45.222;5.688;2022-07-09T17:48:10;4.78;;;2.45;;
14770;SDS011;7477;45.222;5.688;2022-07-09T17:51:30;3.28;;;2.58;;
14770;SDS011;7477;45.222;5.688;2022-07-09T17:54:49;5.15;;;2.40;;
14770;SDS011;7477;45.222;5.688;2022-07-09T17:58:08;4.00;;;2.50;;
14770;SDS011;7477;45.222;5.688;2022-07-09T18:01:27;2.83;;;2.38;;
14770;SDS011;7477;45.222;5.688;2022-07-09T18:04:47;3.25;;;2.40;;
14770;SDS011;7477;45.222;5.688;2022-07-09T18:08:06;5.60;;;2.25;;
14770;SDS011;7477;45.222;5.688;2022-07-09T18:11:25;3.20;;;2.50;;
14770;SDS011;7477;45.222;5.688;2022-07-09T18:14:45;3.95;;;2.40;;
14770;SDS011;7477;45.222;5.688;2022-07-09T18:18:04;3.80;;;2.88;;
14770;SDS011;7477;45.222;5.688;2022-07-09T18:21:23;3.25;;;2.33;;
14770;SDS011;7477;45.222;5.688;2022-07-09T18:24:42;3.45;;;2.20;;
14770;SDS011;7477;45.222;5.688;2022-07-09T18:28:01;3.47;;;2.70;;
14770;SDS011;7477;45.222;5.688;2022-07-09T18:31:22;2.47;;;2.05;;
14770;SDS011;7477;45.222;5.688;2022-07-09T18:34:41;5.20;;;2.33;;
14770;SDS011;7477;45.222;5.688;2022-07-09T18:38:02;3.15;;;2.40;;
14770;SDS011;7477;45.222;5.688;2022-07-09T18:41:22;3.03;;;2.63;;
14770;SDS011;7477;45.222;5.688;2022-07-09T18:44:41;2.72;;;2.20;;
14770;SDS011;7477;45.222;5.688;2022-07-09T18:48:04;4.78;;;2.22;;
14770;SDS011;7477;45.222;5.688;2022-07-09T18:51:24;8.18;;;2.55;;
14770;SDS011;7477;45.222;5.688;2022-07-09T18:54:43;6.38;;;2.50;;
14770;SDS011;7477;45.222;5.688;2022-07-09T18:58:02;4.28;;;2.17;;
14770;SDS011;7477;45.222;5.688;2022-07-09T19:01:22;5.88;;;2.53;;
14770;SDS011;7477;45.222;5.688;2022-07-09T19:04:41;2.55;;;2.15;;
14770;SDS011;7477;45.222;5.688;2022-07-09T19:08:00;3.75;;;2.50;;
14770;SDS011;7477;45.222;5.688;2022-07-09T19:11:21;3.85;;;2.60;;
14770;SDS011;7477;45.222;5.688;2022-07-09T19:14:40;2.42;;;2.10;;
14770;SDS011;7477;45.222;5.688;2022-07-09T19:17:59;2.97;;;2.40;;
14770;SDS011;7477;45.222;5.688;2022-07-09T19:21:18;3.53;;;2.65;;
14770;SDS011;7477;45.222;5.688;2022-07-09T19:24:38;6.25;;;2.45;;
14770;SDS011;7477;45.222;5.688;2022-07-09T19:27:57;5.35;;;2.50;;
14770;SDS011;7477;45.222;5.688;2022-07-09T19:31:17;6.82;;;3.28;;
14770;SDS011;7477;45.222;5.688;2022-07-09T19:34:56;3.97;;;2.42;;
14770;SDS011;7477;45.222;5.688;2022-07-09T19:38:17;3.78;;;2.42;;
14770;SDS011;7477;45.222;5.688;2022-07-09T19:41:37;4.93;;;2.20;;
14770;SDS011;7477;45.222;5.688;2022-07-09T19:44:56;5.57;;;2.50;;
14770;SDS011;7477;45.222;5.688;2022-07-09T19:48:15;3.60;;;2.60;;
14770;SDS011;7477;45.222;5.688;2022-07-09T19:51:35;3.88;;;2.63;;
14770;SDS011;7477;45.222;5.688;2022-07-09T19:54:55;4.10;;;2.10;;
14770;SDS011;7477;45.222;5.688;2022-07-09T19:58:14;4.45;;;2.25;;
14770;SDS011;7477;45.222;5.688;2022-07-09T20:01:33;3.35;;;2.72;;
14770;SDS011;7477;45.222;5.688;2022-07-09T20:04:53;3.40;;;2.40;;
14770;SDS011;7477;45.222;5.688;2022-07-09T20:08:12;3.28;;;2.30;;
14770;SDS011;7477;45.222;5.688;2022-07-09T20:11:31;5.68;;;2.45;;
14770;SDS011;7477;45.222;5.688;2022-07-09T20:14:51;5.63;;;3.35;;
14770;SDS011;7477;45.222;5.688;2022-07-09T20:18:10;3.50;;;2.50;;
14770;SDS011;7477;45.222;5.688;2022-07-09T20:21:31;4.57;;;2.58;;
14770;SDS011;7477;45.222;5.688;2022-07-09T20:24:51;3.78;;;2.38;;
14770;SDS011;7477;45.222;5.688;2022-07-09T20:28:10;4.43;;;2.35;;